Portada
METAR-TAF:

METAR-TAF

Aeroports :

Kota Bharu, Malàisia

latitud: 06-10N, longitud: 102-17E, altitud: 5 m

Observació

L'informe es va fer fa 1 hora i 4 minuts, a les 00:00 UTC
Vent 10 kt del Est, variant entre Nord-Est i Sud-Est
Temperatura 26°C
Humitat 89%
Pressió 1014 hPa
Visibilitat 10 km o més
Núvols disperses a una alçada de 2000 ft

METAR: WMKC 210000Z 08010KT 050V130 9999 SCT020 26/24 Q1014

Hora: 09:04 (01:04 UTC)

Pronòstic

L'informe es va fer fa 2 hores i 4 minuts, a les 23:00 UTC
Pronòstic vàlid del 21 a les 00 UTC al 22 a les 00 UTC
Vent 8 kt del Est
Visibilitat 10 km o més
Escasses núvols a una alçada de 2000 ft
Evolucionant progressivament
l' 21 a les 02 UTC al 21 a les 03 UTC
Escasses núvols a una alçada de 1800 ft
Evolucionant progressivament
l' 21 a les 11 UTC al 21 a les 12 UTC
Escasses núvols a una alçada de 2000 ft

TAF: WMKC 202300Z 2100/2200 09008KT 9999 FEW020 BECMG 2102/2103 FEW018 BECMG 2111/2112 FEW020

Observacions i pronòstics meteorològics de més de 4000 aeroports (METAR i TAF).

Les estacions disponibles són els punts grocs i vermells al mapa.

Posi el ratolí al punt desitjat per veure el nom de l'estació.

Feu clic per veure les observacions i els pronòstics meteorològics.

Per canviar el mapa: feu clic els botons verds amb una creu de color negre per apropar; al botó verd amb un guió per allunyar la imatge; o en les fletxes verdes per a mapes adjacents.


METAR-TAF: